createdAt,value
2022-12-01T13:01:46.795Z,1016.64
2022-12-01T13:02:17.299Z,1016.68
2022-12-01T13:02:48.516Z,1016.67
2022-12-01T13:03:19.200Z,1016.65
2022-12-01T13:03:49.814Z,1016.66
2022-12-01T13:04:20.250Z,1016.65
2022-12-01T13:04:51.307Z,1016.65
2022-12-01T13:05:21.937Z,1016.66
2022-12-01T13:05:52.603Z,1016.65
2022-12-01T13:06:23.167Z,1016.66
2022-12-01T13:06:53.803Z,1016.66
2022-12-01T13:07:24.295Z,1016.65
2022-12-01T13:07:54.923Z,1016.64
2022-12-01T13:08:25.592Z,1016.62
2022-12-01T13:08:56.299Z,1016.62
2022-12-01T13:09:26.839Z,1016.64
2022-12-01T13:10:00.518Z,1016.63
2022-12-01T13:10:27.875Z,1016.62
2022-12-01T13:10:59.135Z,1016.62
2022-12-01T13:11:29.756Z,1016.62
2022-12-01T13:12:00.375Z,1016.62
2022-12-01T13:12:30.844Z,1016.60
2022-12-01T13:13:01.860Z,1016.60
2022-12-01T13:13:32.925Z,1016.60
2022-12-01T13:14:03.528Z,1016.60
2022-12-01T13:14:34.030Z,1016.58
2022-12-01T13:15:04.914Z,1016.57
2022-12-01T13:15:35.906Z,1016.58
2022-12-01T13:16:06.624Z,1016.56
2022-12-01T13:16:37.276Z,1016.56
2022-12-01T13:17:07.950Z,1016.55
2022-12-01T13:17:38.344Z,1016.56
2022-12-01T13:18:09.401Z,1016.56
2022-12-01T13:18:40.222Z,1016.55
2022-12-01T13:19:10.829Z,1016.57
2022-12-01T13:19:41.884Z,1016.56
2022-12-01T13:20:12.524Z,1016.58
2022-12-01T13:20:42.972Z,1016.57
2022-12-01T13:21:14.060Z,1016.55
2022-12-01T13:21:44.972Z,1016.57
2022-12-01T13:22:15.613Z,1016.57
2022-12-01T13:22:46.174Z,1016.56
2022-12-01T13:23:16.808Z,1016.55
2022-12-01T13:23:47.331Z,1016.54
2022-12-01T13:24:22.823Z,1016.55
2022-12-01T13:24:49.554Z,1016.56
2022-12-01T13:25:19.240Z,1016.54
2022-12-01T13:25:49.863Z,1016.56
2022-12-01T13:26:20.488Z,1016.54
2022-12-01T13:26:50.999Z,1016.51
2022-12-01T13:27:21.825Z,1016.52
2022-12-01T13:27:52.376Z,1016.52
2022-12-01T13:28:23.014Z,1016.50
2022-12-01T13:28:53.555Z,1016.50
2022-12-01T13:29:24.193Z,1016.50
2022-12-01T13:29:54.646Z,1016.50
2022-12-01T13:30:25.893Z,1016.49
2022-12-01T13:30:56.461Z,1016.51
2022-12-01T13:31:27.110Z,1016.52
2022-12-01T13:31:57.788Z,1016.53
2022-12-01T13:32:28.391Z,1016.52
2022-12-01T13:33:39.859Z,1016.50
2022-12-01T13:34:10.763Z,1016.51
2022-12-01T13:34:41.733Z,1016.50
2022-12-01T13:35:12.842Z,1016.50
2022-12-01T13:36:46.805Z,1016.52
2022-12-01T13:36:55.844Z,1016.51
2022-12-01T13:37:25.717Z,1016.51
2022-12-01T13:37:56.712Z,1016.52
2022-12-01T13:38:27.763Z,1016.51
2022-12-01T13:38:58.398Z,1016.51
2022-12-01T13:39:29.034Z,1016.50
2022-12-01T13:39:59.474Z,1016.50
2022-12-01T13:41:11.465Z,1016.49
2022-12-01T13:41:41.984Z,1016.48
2022-12-01T13:42:12.600Z,1016.49
2022-12-01T13:42:43.598Z,1016.51
2022-12-01T13:43:14.024Z,1016.51
2022-12-01T13:44:26.028Z,1016.50
2022-12-01T13:44:56.439Z,1016.52
2022-12-01T13:45:27.410Z,1016.51
2022-12-01T13:45:58.299Z,1016.51
2022-12-01T13:46:29.578Z,1016.52
2022-12-01T13:47:00.042Z,1016.52
2022-12-01T13:47:31.022Z,1016.51
2022-12-01T13:48:02.058Z,1016.53
2022-12-01T13:48:32.703Z,1016.50
2022-12-01T13:49:03.414Z,1016.51
2022-12-01T13:49:33.918Z,1016.52
2022-12-01T13:50:04.887Z,1016.53
2022-12-01T13:50:36.007Z,1016.51
2022-12-01T13:51:06.615Z,1016.51
2022-12-01T13:51:37.351Z,1016.50
2022-12-01T13:52:08.004Z,1016.50
2022-12-01T13:52:38.523Z,1016.50
2022-12-01T13:53:09.126Z,1016.49
2022-12-01T13:53:39.613Z,1016.50
2022-12-01T13:54:10.912Z,1016.49
2022-12-01T13:54:41.381Z,1016.49
2022-12-01T13:55:12.046Z,1016.48
2022-12-01T13:55:42.519Z,1016.48
2022-12-01T13:56:54.354Z,1016.46
2022-12-01T13:57:25.344Z,1016.47
2022-12-01T13:57:56.325Z,1016.46
2022-12-01T13:58:27.246Z,1016.47
2022-12-01T13:58:58.179Z,1016.48
2022-12-01T13:59:29.090Z,1016.48
2022-12-01T14:00:00.301Z,1016.48
2022-12-01T14:00:30.862Z,1016.46
2022-12-01T14:01:01.568Z,1016.46
2022-12-01T14:01:32.348Z,1016.48
2022-12-01T14:02:03.048Z,1016.46
2022-12-01T14:03:14.680Z,1016.44
2022-12-01T14:03:45.447Z,1016.44
2022-12-01T14:04:16.410Z,1016.45
2022-12-01T14:04:47.698Z,1016.46
2022-12-01T14:05:18.476Z,1016.46
2022-12-01T14:05:49.303Z,1016.47
2022-12-01T14:06:19.921Z,1016.49
2022-12-01T14:06:50.556Z,1016.50
2022-12-01T14:07:21.212Z,1016.47
2022-12-01T14:07:52.005Z,1016.48
2022-12-01T14:08:23.445Z,1016.48
2022-12-01T14:08:53.425Z,1016.47
2022-12-01T14:09:23.967Z,1016.50
2022-12-01T14:09:54.610Z,1016.50
2022-12-01T14:10:25.054Z,1016.50
2022-12-01T14:10:56.126Z,1016.50
2022-12-01T14:11:26.778Z,1016.52
2022-12-01T14:11:57.620Z,1016.53
2022-12-01T14:12:28.354Z,1016.53
2022-12-01T14:12:58.749Z,1016.52
2022-12-01T14:13:29.626Z,1016.54
2022-12-01T14:14:00.476Z,1016.53
2022-12-01T14:14:31.460Z,1016.53
2022-12-01T14:15:02.335Z,1016.53
2022-12-01T14:15:33.430Z,1016.54
2022-12-01T14:16:04.073Z,1016.54
2022-12-01T14:17:16.482Z,1016.55
2022-12-01T14:17:46.489Z,1016.54
2022-12-01T14:18:17.048Z,1016.55
2022-12-01T14:18:47.476Z,1016.56
2022-12-01T14:19:18.531Z,1016.56
2022-12-01T14:19:48.953Z,1016.56
2022-12-01T14:20:20.154Z,1016.56
2022-12-01T14:20:50.675Z,1016.56
2022-12-01T14:21:21.293Z,1016.59
2022-12-01T14:21:51.792Z,1016.59
2022-12-01T14:22:22.410Z,1016.58
2022-12-01T14:22:52.908Z,1016.60
2022-12-01T14:24:04.807Z,1016.57
2022-12-01T14:24:35.928Z,1016.60
2022-12-01T14:25:06.384Z,1016.59
2022-12-01T14:25:37.425Z,1016.59
2022-12-01T14:26:08.034Z,1016.58
2022-12-01T14:26:42.058Z,1016.59
2022-12-01T14:27:10.290Z,1016.58
2022-12-01T14:27:39.891Z,1016.55
2022-12-01T14:28:10.345Z,1016.57
2022-12-01T14:29:22.331Z,1016.55
2022-12-01T14:29:52.744Z,1016.55
2022-12-01T14:30:23.847Z,1016.55
2022-12-01T14:30:54.559Z,1016.54
2022-12-01T14:31:25.129Z,1016.54
2022-12-01T14:31:56.188Z,1016.53
2022-12-01T14:32:26.552Z,1016.52
2022-12-01T14:32:57.619Z,1016.54
2022-12-01T14:33:28.330Z,1016.52
2022-12-01T14:33:58.677Z,1016.55
2022-12-01T14:34:29.804Z,1016.55
2022-12-01T14:35:00.268Z,1016.54
2022-12-01T14:36:15.047Z,1016.54
2022-12-01T14:36:45.975Z,1016.55
2022-12-01T14:37:16.908Z,1016.56
2022-12-01T14:37:47.963Z,1016.57
2022-12-01T14:38:18.596Z,1016.54
2022-12-01T14:38:49.109Z,1016.53
2022-12-01T14:39:19.914Z,1016.53
2022-12-01T14:39:50.567Z,1016.53
2022-12-01T14:40:21.189Z,1016.53
2022-12-01T14:40:51.619Z,1016.53
2022-12-01T14:42:07.841Z,1016.51
2022-12-01T14:42:37.240Z,1016.55
2022-12-01T14:43:08.190Z,1016.53
2022-12-01T14:43:39.229Z,1016.54
2022-12-01T14:44:09.710Z,1016.53
2022-12-01T14:45:21.677Z,1016.51
2022-12-01T14:45:52.297Z,1016.53
2022-12-01T14:46:22.897Z,1016.54
2022-12-01T14:47:34.464Z,1016.55
2022-12-01T14:48:04.867Z,1016.57
2022-12-01T14:48:35.938Z,1016.56
2022-12-01T14:49:06.589Z,1016.57
2022-12-01T14:49:37.065Z,1016.56
2022-12-01T14:50:08.318Z,1016.56
2022-12-01T14:50:45.050Z,1016.55
2022-12-01T14:51:10.317Z,1016.54
2022-12-01T14:51:40.305Z,1016.57
2022-12-01T14:52:11.398Z,1016.58
2022-12-01T14:52:42.242Z,1016.58
2022-12-01T14:53:12.748Z,1016.58
2022-12-01T14:54:24.711Z,1016.56
2022-12-01T14:54:55.649Z,1016.57
2022-12-01T14:55:26.559Z,1016.57
2022-12-01T14:55:57.624Z,1016.59
2022-12-01T14:56:28.270Z,1016.58
2022-12-01T14:57:04.365Z,1016.59
2022-12-01T14:57:29.405Z,1016.60
2022-12-01T14:58:00.048Z,1016.60
2022-12-01T14:58:30.487Z,1016.57
2022-12-01T14:59:01.610Z,1016.57
2022-12-01T14:59:32.451Z,1016.59
2022-12-01T15:00:03.010Z,1016.58
2022-12-01T15:00:33.730Z,1016.58
2022-12-01T15:01:04.519Z,1016.59
2022-12-01T15:01:35.359Z,1016.57
2022-12-01T15:02:05.951Z,1016.57
2022-12-01T15:02:36.814Z,1016.55
2022-12-01T15:03:07.307Z,1016.56
2022-12-01T15:04:19.277Z,1016.55
2022-12-01T15:04:49.953Z,1016.57
2022-12-01T15:05:20.591Z,1016.57
2022-12-01T15:05:51.567Z,1016.57
2022-12-01T15:06:22.492Z,1016.57
2022-12-01T15:06:53.767Z,1016.56
2022-12-01T15:07:24.344Z,1016.56
2022-12-01T15:08:06.804Z,1016.54
2022-12-01T15:08:41.828Z,1016.55
2022-12-01T15:09:10.939Z,1016.55
2022-12-01T15:10:08.542Z,1016.53
2022-12-01T15:10:38.990Z,1016.54
2022-12-01T15:11:11.353Z,1016.55
2022-12-01T15:11:40.701Z,1016.55
2022-12-01T15:12:11.336Z,1016.54
2022-12-01T15:12:42.159Z,1016.54
2022-12-01T15:13:12.778Z,1016.55
2022-12-01T15:13:43.425Z,1016.55
2022-12-01T15:14:14.087Z,1016.56
2022-12-01T15:14:44.586Z,1016.55
2022-12-01T15:15:15.019Z,1016.54
2022-12-01T15:15:46.313Z,1016.54
2022-12-01T15:16:17.012Z,1016.56
2022-12-01T15:16:47.755Z,1016.55
2022-12-01T15:17:18.396Z,1016.56
2022-12-01T15:17:48.945Z,1016.56
2022-12-01T15:18:19.577Z,1016.57
2022-12-01T15:18:50.254Z,1016.57
2022-12-01T15:19:20.756Z,1016.56
2022-12-01T15:19:52.225Z,1016.58
2022-12-01T15:20:22.563Z,1016.57
2022-12-01T15:20:53.159Z,1016.57
2022-12-01T15:21:23.845Z,1016.58
2022-12-01T15:21:54.526Z,1016.59
2022-12-01T15:22:25.119Z,1016.59
2022-12-01T15:23:36.644Z,1016.57
2022-12-01T15:24:07.772Z,1016.57
2022-12-01T15:24:38.432Z,1016.57
2022-12-01T15:25:08.896Z,1016.58
2022-12-01T15:25:39.987Z,1016.59
2022-12-01T15:26:10.859Z,1016.57
2022-12-01T15:26:41.375Z,1016.59
2022-12-01T15:27:11.837Z,1016.58
2022-12-01T15:27:42.898Z,1016.56
2022-12-01T15:28:13.467Z,1016.58
2022-12-01T15:28:44.014Z,1016.59
2022-12-01T15:29:14.784Z,1016.59
2022-12-01T15:29:45.255Z,1016.59
2022-12-01T15:30:15.784Z,1016.58
2022-12-01T15:30:46.763Z,1016.58
2022-12-01T15:31:17.924Z,1016.57
2022-12-01T15:31:48.709Z,1016.58
2022-12-01T15:32:19.590Z,1016.58
2022-12-01T15:32:50.116Z,1016.57
2022-12-01T15:33:24.108Z,1016.58
2022-12-01T15:33:51.458Z,1016.58
2022-12-01T15:34:22.409Z,1016.58
2022-12-01T15:34:53.851Z,1016.58
2022-12-01T15:35:24.462Z,1016.58
2022-12-01T15:35:54.917Z,1016.60
2022-12-01T15:36:25.829Z,1016.60
2022-12-01T15:36:56.734Z,1016.61
2022-12-01T15:37:27.734Z,1016.62
2022-12-01T15:37:58.515Z,1016.62
2022-12-01T15:38:29.065Z,1016.61
2022-12-01T15:39:05.231Z,1016.63
2022-12-01T15:39:31.600Z,1016.61
2022-12-01T15:41:28.634Z,1016.64
2022-12-01T15:41:34.957Z,1016.67
2022-12-01T15:42:04.590Z,1016.63
2022-12-01T15:42:35.108Z,1016.62
2022-12-01T15:43:05.690Z,1016.62
2022-12-01T15:43:36.484Z,1016.63
2022-12-01T15:44:07.026Z,1016.63
2022-12-01T15:44:37.603Z,1016.66
2022-12-01T15:45:08.087Z,1016.67
2022-12-01T15:45:38.689Z,1016.64
2022-12-01T15:46:09.321Z,1016.64
2022-12-01T15:46:40.137Z,1016.65
2022-12-01T15:47:10.650Z,1016.63
2022-12-01T15:47:41.197Z,1016.66
2022-12-01T15:48:11.661Z,1016.65
2022-12-01T15:48:42.602Z,1016.66
2022-12-01T15:49:13.668Z,1016.64
2022-12-01T15:49:44.450Z,1016.65
2022-12-01T15:50:15.362Z,1016.65
2022-12-01T15:50:46.557Z,1016.64
2022-12-01T15:51:16.400Z,1016.62
2022-12-01T15:51:47.608Z,1016.63
2022-12-01T15:52:18.301Z,1016.64
2022-12-01T15:52:49.059Z,1016.61
2022-12-01T15:53:19.629Z,1016.62
2022-12-01T15:53:50.098Z,1016.61
2022-12-01T15:54:21.139Z,1016.61
2022-12-01T15:54:52.128Z,1016.62
2022-12-01T15:55:22.342Z,1016.62
2022-12-01T15:55:58.336Z,1016.63
2022-12-01T15:56:24.539Z,1016.63
2022-12-01T15:56:54.193Z,1016.63
2022-12-01T15:57:24.698Z,1016.61
2022-12-01T15:57:56.178Z,1016.64
2022-12-01T15:58:26.223Z,1016.63
2022-12-01T15:58:56.909Z,1016.65
2022-12-01T15:59:27.500Z,1016.65
2022-12-01T15:59:58.056Z,1016.66
2022-12-01T16:00:28.561Z,1016.65
2022-12-01T16:00:59.211Z,1016.62
2022-12-01T16:01:29.859Z,1016.62
2022-12-01T16:02:00.732Z,1016.63
2022-12-01T16:02:31.355Z,1016.62
2022-12-01T16:03:02.206Z,1016.61
2022-12-01T16:03:32.907Z,1016.62
2022-12-01T16:04:03.500Z,1016.62
2022-12-01T16:04:34.084Z,1016.61
2022-12-01T16:05:04.805Z,1016.61
2022-12-01T16:08:19.602Z,1016.57
2022-12-01T16:08:50.678Z,1016.59
2022-12-01T16:09:21.202Z,1016.60
2022-12-01T16:09:51.966Z,1016.60
2022-12-01T16:10:22.483Z,1016.60
2022-12-01T16:10:53.019Z,1016.58
2022-12-01T16:11:23.550Z,1016.59
2022-12-01T16:11:54.004Z,1016.60
2022-12-01T16:12:25.028Z,1016.60
2022-12-01T16:12:55.770Z,1016.59
2022-12-01T16:13:26.453Z,1016.59
2022-12-01T16:13:57.155Z,1016.57
2022-12-01T16:14:27.691Z,1016.58
2022-12-01T16:14:58.367Z,1016.57
2022-12-01T16:15:28.967Z,1016.58
2022-12-01T16:15:59.848Z,1016.59
